sensor_id;sensor_type;location;lat;lon;timestamp;P1;durP1;ratioP1;P2;durP2;ratioP2
66523;SDS011;53350;52.210;5.160;2023-04-24T00:01:06;0.85;;;0.50;;
66523;SDS011;53350;52.210;5.160;2023-04-24T00:03:33;2.57;;;0.60;;
66523;SDS011;53350;52.210;5.160;2023-04-24T00:06:00;1.52;;;0.98;;
66523;SDS011;53350;52.210;5.160;2023-04-24T00:08:29;1.00;;;0.60;;
66523;SDS011;53350;52.210;5.160;2023-04-24T00:10:55;0.93;;;0.63;;
66523;SDS011;53350;52.210;5.160;2023-04-24T00:13:22;1.70;;;0.75;;
66523;SDS011;53350;52.210;5.160;2023-04-24T00:15:48;2.50;;;1.15;;
66523;SDS011;53350;52.210;5.160;2023-04-24T00:18:15;3.50;;;1.13;;
66523;SDS011;53350;52.210;5.160;2023-04-24T00:20:41;1.85;;;0.70;;
66523;SDS011;53350;52.210;5.160;2023-04-24T00:23:09;1.08;;;0.65;;
66523;SDS011;53350;52.210;5.160;2023-04-24T00:25:36;1.38;;;0.63;;
66523;SDS011;53350;52.210;5.160;2023-04-24T00:28:03;0.60;;;0.50;;
66523;SDS011;53350;52.210;5.160;2023-04-24T00:30:29;1.80;;;0.60;;
66523;SDS011;53350;52.210;5.160;2023-04-24T00:32:56;3.45;;;0.90;;
66523;SDS011;53350;52.210;5.160;2023-04-24T00:35:23;1.25;;;0.70;;
66523;SDS011;53350;52.210;5.160;2023-04-24T00:37:49;3.10;;;1.25;;
66523;SDS011;53350;52.210;5.160;2023-04-24T00:40:16;1.65;;;1.00;;
66523;SDS011;53350;52.210;5.160;2023-04-24T00:42:44;4.28;;;1.60;;
66523;SDS011;53350;52.210;5.160;2023-04-24T00:45:10;2.97;;;1.50;;
66523;SDS011;53350;52.210;5.160;2023-04-24T00:47:38;3.37;;;1.47;;
66523;SDS011;53350;52.210;5.160;2023-04-24T00:50:05;4.13;;;1.65;;
66523;SDS011;53350;52.210;5.160;2023-04-24T00:52:32;2.42;;;1.45;;
66523;SDS011;53350;52.210;5.160;2023-04-24T00:54:59;3.20;;;1.20;;
66523;SDS011;53350;52.210;5.160;2023-04-24T00:57:25;4.18;;;1.48;;
66523;SDS011;53350;52.210;5.160;2023-04-24T00:59:53;4.03;;;1.15;;
66523;SDS011;53350;52.210;5.160;2023-04-24T01:02:21;2.92;;;1.00;;
66523;SDS011;53350;52.210;5.160;2023-04-24T01:04:49;2.13;;;1.60;;
66523;SDS011;53350;52.210;5.160;2023-04-24T01:07:17;3.80;;;1.00;;
66523;SDS011;53350;52.210;5.160;2023-04-24T01:09:45;1.50;;;0.80;;
66523;SDS011;53350;52.210;5.160;2023-04-24T01:12:15;3.03;;;0.90;;
66523;SDS011;53350;52.210;5.160;2023-04-24T01:14:42;1.42;;;0.65;;
66523;SDS011;53350;52.210;5.160;2023-04-24T01:17:10;2.17;;;0.68;;
66523;SDS011;53350;52.210;5.160;2023-04-24T01:19:37;3.80;;;0.90;;
66523;SDS011;53350;52.210;5.160;2023-04-24T01:22:08;3.15;;;0.85;;
66523;SDS011;53350;52.210;5.160;2023-04-24T01:24:36;3.40;;;0.70;;
66523;SDS011;53350;52.210;5.160;2023-04-24T01:27:03;1.83;;;0.70;;
66523;SDS011;53350;52.210;5.160;2023-04-24T01:29:30;2.63;;;0.80;;
66523;SDS011;53350;52.210;5.160;2023-04-24T01:31:56;1.45;;;0.82;;
66523;SDS011;53350;52.210;5.160;2023-04-24T01:34:23;2.53;;;0.90;;
66523;SDS011;53350;52.210;5.160;2023-04-24T01:36:50;2.17;;;1.10;;
66523;SDS011;53350;52.210;5.160;2023-04-24T01:39:17;2.35;;;1.13;;
66523;SDS011;53350;52.210;5.160;2023-04-24T01:41:45;6.40;;;1.08;;
66523;SDS011;53350;52.210;5.160;2023-04-24T01:44:12;3.30;;;1.30;;
66523;SDS011;53350;52.210;5.160;2023-04-24T01:46:39;2.88;;;1.33;;
66523;SDS011;53350;52.210;5.160;2023-04-24T01:49:05;2.58;;;1.15;;
66523;SDS011;53350;52.210;5.160;2023-04-24T01:51:32;2.05;;;1.02;;
66523;SDS011;53350;52.210;5.160;2023-04-24T01:53:58;3.28;;;1.30;;
66523;SDS011;53350;52.210;5.160;2023-04-24T01:56:26;4.35;;;1.35;;
66523;SDS011;53350;52.210;5.160;2023-04-24T01:58:55;2.15;;;1.00;;
66523;SDS011;53350;52.210;5.160;2023-04-24T02:01:23;2.22;;;0.73;;
66523;SDS011;53350;52.210;5.160;2023-04-24T02:03:50;4.03;;;1.10;;
66523;SDS011;53350;52.210;5.160;2023-04-24T02:06:17;2.80;;;0.98;;
66523;SDS011;53350;52.210;5.160;2023-04-24T02:08:43;2.97;;;1.00;;
66523;SDS011;53350;52.210;5.160;2023-04-24T02:11:10;2.25;;;0.80;;
66523;SDS011;53350;52.210;5.160;2023-04-24T02:13:37;2.08;;;0.80;;
66523;SDS011;53350;52.210;5.160;2023-04-24T02:16:04;2.60;;;0.90;;
66523;SDS011;53350;52.210;5.160;2023-04-24T02:18:30;3.70;;;0.98;;
66523;SDS011;53350;52.210;5.160;2023-04-24T02:20:57;3.45;;;1.00;;
66523;SDS011;53350;52.210;5.160;2023-04-24T02:23:23;1.05;;;0.70;;
66523;SDS011;53350;52.210;5.160;2023-04-24T02:25:50;3.42;;;0.98;;
66523;SDS011;53350;52.210;5.160;2023-04-24T02:28:18;3.10;;;0.98;;
66523;SDS011;53350;52.210;5.160;2023-04-24T02:30:46;4.35;;;0.80;;
66523;SDS011;53350;52.210;5.160;2023-04-24T02:33:12;4.20;;;0.70;;
66523;SDS011;53350;52.210;5.160;2023-04-24T02:35:38;2.58;;;1.10;;
66523;SDS011;53350;52.210;5.160;2023-04-24T02:38:05;2.72;;;1.27;;
66523;SDS011;53350;52.210;5.160;2023-04-24T02:40:31;1.30;;;0.90;;
66523;SDS011;53350;52.210;5.160;2023-04-24T02:42:58;1.95;;;0.90;;
66523;SDS011;53350;52.210;5.160;2023-04-24T02:45:24;2.35;;;0.93;;
66523;SDS011;53350;52.210;5.160;2023-04-24T02:47:52;3.00;;;0.95;;
66523;SDS011;53350;52.210;5.160;2023-04-24T02:50:18;1.83;;;0.85;;
66523;SDS011;53350;52.210;5.160;2023-04-24T02:52:45;4.00;;;0.93;;
66523;SDS011;53350;52.210;5.160;2023-04-24T02:55:12;1.95;;;1.00;;
66523;SDS011;53350;52.210;5.160;2023-04-24T02:57:38;2.42;;;1.00;;
66523;SDS011;53350;52.210;5.160;2023-04-24T03:00:05;1.25;;;0.85;;
66523;SDS011;53350;52.210;5.160;2023-04-24T03:02:34;3.72;;;1.35;;
66523;SDS011;53350;52.210;5.160;2023-04-24T03:05:02;4.07;;;1.40;;
66523;SDS011;53350;52.210;5.160;2023-04-24T03:07:32;2.03;;;0.95;;
66523;SDS011;53350;52.210;5.160;2023-04-24T03:09:59;5.53;;;1.60;;
66523;SDS011;53350;52.210;5.160;2023-04-24T03:12:25;4.18;;;1.30;;
66523;SDS011;53350;52.210;5.160;2023-04-24T03:14:52;2.28;;;1.30;;
66523;SDS011;53350;52.210;5.160;2023-04-24T03:17:18;2.28;;;1.20;;
66523;SDS011;53350;52.210;5.160;2023-04-24T03:19:45;3.55;;;1.50;;
66523;SDS011;53350;52.210;5.160;2023-04-24T03:22:12;2.63;;;1.40;;
66523;SDS011;53350;52.210;5.160;2023-04-24T03:24:39;7.32;;;2.08;;
66523;SDS011;53350;52.210;5.160;2023-04-24T03:27:06;5.72;;;2.08;;
66523;SDS011;53350;52.210;5.160;2023-04-24T03:29:32;2.80;;;1.60;;
66523;SDS011;53350;52.210;5.160;2023-04-24T03:31:59;6.03;;;1.88;;
66523;SDS011;53350;52.210;5.160;2023-04-24T03:34:25;3.35;;;1.45;;
66523;SDS011;53350;52.210;5.160;2023-04-24T03:36:51;4.32;;;1.70;;
66523;SDS011;53350;52.210;5.160;2023-04-24T03:39:19;3.60;;;1.52;;
66523;SDS011;53350;52.210;5.160;2023-04-24T03:41:46;4.75;;;1.85;;
66523;SDS011;53350;52.210;5.160;2023-04-24T03:44:12;3.38;;;1.40;;
66523;SDS011;53350;52.210;5.160;2023-04-24T03:46:39;2.42;;;1.20;;
66523;SDS011;53350;52.210;5.160;2023-04-24T03:49:05;4.20;;;1.42;;
66523;SDS011;53350;52.210;5.160;2023-04-24T03:51:31;4.00;;;1.25;;
66523;SDS011;53350;52.210;5.160;2023-04-24T03:53:58;3.10;;;1.30;;
66523;SDS011;53350;52.210;5.160;2023-04-24T03:56:25;3.03;;;1.35;;
66523;SDS011;53350;52.210;5.160;2023-04-24T03:58:52;3.17;;;1.40;;
66523;SDS011;53350;52.210;5.160;2023-04-24T04:01:18;3.40;;;1.15;;
66523;SDS011;53350;52.210;5.160;2023-04-24T04:03:45;3.80;;;1.30;;
66523;SDS011;53350;52.210;5.160;2023-04-24T04:06:12;3.38;;;1.70;;
66523;SDS011;53350;52.210;5.160;2023-04-24T04:08:38;4.65;;;1.52;;
66523;SDS011;53350;52.210;5.160;2023-04-24T04:11:05;5.28;;;1.60;;
66523;SDS011;53350;52.210;5.160;2023-04-24T04:13:32;4.43;;;1.50;;
66523;SDS011;53350;52.210;5.160;2023-04-24T04:15:59;4.70;;;1.73;;
66523;SDS011;53350;52.210;5.160;2023-04-24T04:18:25;5.25;;;1.98;;
66523;SDS011;53350;52.210;5.160;2023-04-24T04:20:52;3.85;;;1.58;;
66523;SDS011;53350;52.210;5.160;2023-04-24T04:23:18;3.60;;;1.83;;
66523;SDS011;53350;52.210;5.160;2023-04-24T04:25:44;3.97;;;1.80;;
66523;SDS011;53350;52.210;5.160;2023-04-24T04:28:12;5.97;;;1.95;;
66523;SDS011;53350;52.210;5.160;2023-04-24T04:30:39;4.53;;;2.00;;
66523;SDS011;53350;52.210;5.160;2023-04-24T04:33:06;2.33;;;1.70;;
66523;SDS011;53350;52.210;5.160;2023-04-24T04:35:33;4.57;;;1.77;;
66523;SDS011;53350;52.210;5.160;2023-04-24T04:37:59;4.47;;;1.75;;
66523;SDS011;53350;52.210;5.160;2023-04-24T04:40:25;3.78;;;1.80;;
66523;SDS011;53350;52.210;5.160;2023-04-24T04:42:52;3.35;;;1.50;;
66523;SDS011;53350;52.210;5.160;2023-04-24T04:45:19;4.43;;;1.35;;
66523;SDS011;53350;52.210;5.160;2023-04-24T04:47:47;2.95;;;1.10;;
66523;SDS011;53350;52.210;5.160;2023-04-24T04:50:13;3.80;;;1.40;;
66523;SDS011;53350;52.210;5.160;2023-04-24T04:52:41;3.80;;;1.52;;
66523;SDS011;53350;52.210;5.160;2023-04-24T04:55:08;4.38;;;1.70;;
66523;SDS011;53350;52.210;5.160;2023-04-24T04:57:34;2.42;;;1.35;;
66523;SDS011;53350;52.210;5.160;2023-04-24T05:00:01;4.15;;;1.73;;
66523;SDS011;53350;52.210;5.160;2023-04-24T05:02:29;3.45;;;1.58;;
66523;SDS011;53350;52.210;5.160;2023-04-24T05:04:57;4.72;;;1.58;;
66523;SDS011;53350;52.210;5.160;2023-04-24T05:07:24;2.83;;;1.20;;
66523;SDS011;53350;52.210;5.160;2023-04-24T05:09:50;1.95;;;0.85;;
66523;SDS011;53350;52.210;5.160;2023-04-24T05:12:17;1.75;;;0.93;;
66523;SDS011;53350;52.210;5.160;2023-04-24T05:14:43;3.47;;;1.05;;
66523;SDS011;53350;52.210;5.160;2023-04-24T05:17:10;2.08;;;0.80;;
66523;SDS011;53350;52.210;5.160;2023-04-24T05:19:36;1.17;;;0.80;;
66523;SDS011;53350;52.210;5.160;2023-04-24T05:22:05;2.53;;;0.68;;
66523;SDS011;53350;52.210;5.160;2023-04-24T05:24:32;1.55;;;0.63;;
66523;SDS011;53350;52.210;5.160;2023-04-24T05:26:58;2.15;;;0.68;;
66523;SDS011;53350;52.210;5.160;2023-04-24T05:29:25;1.05;;;0.57;;
66523;SDS011;53350;52.210;5.160;2023-04-24T05:31:52;2.17;;;0.60;;
66523;SDS011;53350;52.210;5.160;2023-04-24T05:34:18;3.50;;;0.70;;
66523;SDS011;53350;52.210;5.160;2023-04-24T05:36:45;2.95;;;1.20;;
66523;SDS011;53350;52.210;5.160;2023-04-24T05:39:13;1.60;;;0.70;;
66523;SDS011;53350;52.210;5.160;2023-04-24T05:41:39;0.95;;;0.50;;
66523;SDS011;53350;52.210;5.160;2023-04-24T05:44:06;2.72;;;0.50;;
66523;SDS011;53350;52.210;5.160;2023-04-24T05:46:32;2.97;;;0.63;;
66523;SDS011;53350;52.210;5.160;2023-04-24T05:48:59;0.70;;;0.50;;
66523;SDS011;53350;52.210;5.160;2023-04-24T05:51:25;1.73;;;0.57;;
66523;SDS011;53350;52.210;5.160;2023-04-24T05:53:52;1.90;;;0.75;;
66523;SDS011;53350;52.210;5.160;2023-04-24T05:56:20;1.30;;;0.73;;
66523;SDS011;53350;52.210;5.160;2023-04-24T05:58:46;1.55;;;0.60;;
66523;SDS011;53350;52.210;5.160;2023-04-24T06:01:13;1.38;;;0.60;;
66523;SDS011;53350;52.210;5.160;2023-04-24T06:03:40;1.27;;;0.60;;
66523;SDS011;53350;52.210;5.160;2023-04-24T06:06:06;1.13;;;0.70;;
66523;SDS011;53350;52.210;5.160;2023-04-24T06:08:33;9.43;;;1.20;;
66523;SDS011;53350;52.210;5.160;2023-04-24T06:11:01;5.70;;;2.42;;
66523;SDS011;53350;52.210;5.160;2023-04-24T06:13:28;8.88;;;3.55;;
66523;SDS011;53350;52.210;5.160;2023-04-24T06:15:55;9.52;;;4.90;;
66523;SDS011;53350;52.210;5.160;2023-04-24T06:18:21;11.43;;;7.20;;
66523;SDS011;53350;52.210;5.160;2023-04-24T06:20:48;11.70;;;6.20;;
66523;SDS011;53350;52.210;5.160;2023-04-24T06:23:14;10.80;;;6.10;;
66523;SDS011;53350;52.210;5.160;2023-04-24T06:25:41;13.63;;;6.20;;
66523;SDS011;53350;52.210;5.160;2023-04-24T06:28:07;14.05;;;7.35;;
66523;SDS011;53350;52.210;5.160;2023-04-24T06:30:35;12.23;;;6.50;;
66523;SDS011;53350;52.210;5.160;2023-04-24T06:33:01;16.42;;;8.27;;
66523;SDS011;53350;52.210;5.160;2023-04-24T06:35:28;15.05;;;8.15;;
66523;SDS011;53350;52.210;5.160;2023-04-24T06:37:54;18.13;;;8.20;;
66523;SDS011;53350;52.210;5.160;2023-04-24T06:40:21;18.63;;;8.55;;
66523;SDS011;53350;52.210;5.160;2023-04-24T06:42:47;16.95;;;9.02;;
66523;SDS011;53350;52.210;5.160;2023-04-24T06:45:14;16.60;;;7.40;;
66523;SDS011;53350;52.210;5.160;2023-04-24T06:47:42;16.70;;;7.95;;
66523;SDS011;53350;52.210;5.160;2023-04-24T06:50:08;16.83;;;8.23;;
66523;SDS011;53350;52.210;5.160;2023-04-24T06:52:36;15.15;;;7.45;;
66523;SDS011;53350;52.210;5.160;2023-04-24T06:55:03;17.63;;;7.57;;
66523;SDS011;53350;52.210;5.160;2023-04-24T06:57:30;15.40;;;6.82;;
66523;SDS011;53350;52.210;5.160;2023-04-24T06:59:57;15.88;;;7.05;;
66523;SDS011;53350;52.210;5.160;2023-04-24T07:02:24;16.40;;;6.65;;
66523;SDS011;53350;52.210;5.160;2023-04-24T07:04:52;13.63;;;7.10;;
66523;SDS011;53350;52.210;5.160;2023-04-24T07:07:19;15.60;;;5.97;;
66523;SDS011;53350;52.210;5.160;2023-04-24T07:09:46;25.08;;;6.88;;
66523;SDS011;53350;52.210;5.160;2023-04-24T07:12:13;18.17;;;6.75;;
66523;SDS011;53350;52.210;5.160;2023-04-24T07:14:39;18.83;;;6.55;;
66523;SDS011;53350;52.210;5.160;2023-04-24T07:17:06;15.05;;;6.03;;
66523;SDS011;53350;52.210;5.160;2023-04-24T07:19:32;9.10;;;4.28;;
66523;SDS011;53350;52.210;5.160;2023-04-24T07:22:01;14.40;;;5.37;;
66523;SDS011;53350;52.210;5.160;2023-04-24T07:24:28;15.40;;;5.55;;
66523;SDS011;53350;52.210;5.160;2023-04-24T07:26:54;17.45;;;5.90;;
66523;SDS011;53350;52.210;5.160;2023-04-24T07:29:22;16.65;;;5.50;;
66523;SDS011;53350;52.210;5.160;2023-04-24T07:31:48;13.90;;;5.30;;
66523;SDS011;53350;52.210;5.160;2023-04-24T07:34:14;18.58;;;6.13;;
66523;SDS011;53350;52.210;5.160;2023-04-24T07:36:41;20.65;;;7.10;;
66523;SDS011;53350;52.210;5.160;2023-04-24T07:39:09;21.45;;;5.43;;
66523;SDS011;53350;52.210;5.160;2023-04-24T07:41:35;16.55;;;5.85;;
66523;SDS011;53350;52.210;5.160;2023-04-24T07:44:01;15.40;;;6.07;;
66523;SDS011;53350;52.210;5.160;2023-04-24T07:46:29;15.55;;;6.53;;
66523;SDS011;53350;52.210;5.160;2023-04-24T07:48:56;14.27;;;4.90;;
66523;SDS011;53350;52.210;5.160;2023-04-24T07:51:24;18.67;;;5.25;;
66523;SDS011;53350;52.210;5.160;2023-04-24T07:53:51;12.57;;;4.38;;
66523;SDS011;53350;52.210;5.160;2023-04-24T07:56:19;11.02;;;3.97;;
66523;SDS011;53350;52.210;5.160;2023-04-24T07:58:45;15.23;;;4.10;;
66523;SDS011;53350;52.210;5.160;2023-04-24T08:01:11;10.98;;;2.53;;
66523;SDS011;53350;52.210;5.160;2023-04-24T08:03:38;16.88;;;3.55;;
66523;SDS011;53350;52.210;5.160;2023-04-24T08:06:04;19.35;;;3.88;;
66523;SDS011;53350;52.210;5.160;2023-04-24T08:08:31;11.57;;;2.67;;
66523;SDS011;53350;52.210;5.160;2023-04-24T08:10:58;14.93;;;2.92;;
66523;SDS011;53350;52.210;5.160;2023-04-24T08:13:25;16.55;;;3.30;;
66523;SDS011;53350;52.210;5.160;2023-04-24T08:15:52;15.88;;;3.05;;
66523;SDS011;53350;52.210;5.160;2023-04-24T08:18:19;20.10;;;3.92;;
66523;SDS011;53350;52.210;5.160;2023-04-24T08:20:45;18.13;;;3.25;;
66523;SDS011;53350;52.210;5.160;2023-04-24T08:23:12;13.43;;;2.85;;
66523;SDS011;53350;52.210;5.160;2023-04-24T08:25:38;15.57;;;3.40;;
66523;SDS011;53350;52.210;5.160;2023-04-24T08:28:05;10.93;;;2.60;;
66523;SDS011;53350;52.210;5.160;2023-04-24T08:30:34;11.40;;;2.13;;
66523;SDS011;53350;52.210;5.160;2023-04-24T08:33:00;10.35;;;2.17;;
66523;SDS011;53350;52.210;5.160;2023-04-24T08:35:27;8.57;;;1.65;;
66523;SDS011;53350;52.210;5.160;2023-04-24T08:37:53;10.57;;;2.50;;
66523;SDS011;53350;52.210;5.160;2023-04-24T08:40:21;12.43;;;1.60;;
66523;SDS011;53350;52.210;5.160;2023-04-24T08:42:52;9.30;;;1.40;;
66523;SDS011;53350;52.210;5.160;2023-04-24T08:45:20;14.18;;;1.58;;
66523;SDS011;53350;52.210;5.160;2023-04-24T08:47:49;14.48;;;1.95;;
66523;SDS011;53350;52.210;5.160;2023-04-24T08:50:16;10.68;;;1.70;;
66523;SDS011;53350;52.210;5.160;2023-04-24T08:52:43;7.85;;;1.92;;
66523;SDS011;53350;52.210;5.160;2023-04-24T08:55:09;9.63;;;1.60;;
66523;SDS011;53350;52.210;5.160;2023-04-24T08:57:36;10.57;;;1.80;;
66523;SDS011;53350;52.210;5.160;2023-04-24T09:00:05;18.05;;;2.35;;
66523;SDS011;53350;52.210;5.160;2023-04-24T09:02:32;10.43;;;1.75;;
66523;SDS011;53350;52.210;5.160;2023-04-24T09:05:01;8.02;;;2.13;;
66523;SDS011;53350;52.210;5.160;2023-04-24T09:07:28;13.00;;;2.28;;
66523;SDS011;53350;52.210;5.160;2023-04-24T09:09:58;10.23;;;1.90;;
66523;SDS011;53350;52.210;5.160;2023-04-24T09:12:25;8.37;;;1.60;;
66523;SDS011;53350;52.210;5.160;2023-04-24T09:14:52;7.18;;;1.20;;
66523;SDS011;53350;52.210;5.160;2023-04-24T09:17:19;8.38;;;1.80;;
66523;SDS011;53350;52.210;5.160;2023-04-24T09:19:47;14.93;;;2.30;;
66523;SDS011;53350;52.210;5.160;2023-04-24T09:22:15;8.63;;;1.70;;
66523;SDS011;53350;52.210;5.160;2023-04-24T09:24:42;5.80;;;1.65;;
66523;SDS011;53350;52.210;5.160;2023-04-24T09:27:08;11.10;;;1.80;;
66523;SDS011;53350;52.210;5.160;2023-04-24T09:29:37;8.50;;;1.95;;
66523;SDS011;53350;52.210;5.160;2023-04-24T09:32:17;9.45;;;2.40;;
66523;SDS011;53350;52.210;5.160;2023-04-24T09:34:44;11.45;;;2.25;;
66523;SDS011;53350;52.210;5.160;2023-04-24T09:40:00;7.97;;;1.73;;
66523;SDS011;53350;52.210;5.160;2023-04-24T09:42:33;8.18;;;1.83;;
66523;SDS011;53350;52.210;5.160;2023-04-24T09:45:00;7.80;;;1.90;;
66523;SDS011;53350;52.210;5.160;2023-04-24T09:47:27;12.07;;;1.50;;
66523;SDS011;53350;52.210;5.160;2023-04-24T09:49:54;10.05;;;1.63;;
66523;SDS011;53350;52.210;5.160;2023-04-24T09:52:25;7.82;;;1.33;;
66523;SDS011;53350;52.210;5.160;2023-04-24T09:54:52;6.18;;;1.60;;
66523;SDS011;53350;52.210;5.160;2023-04-24T09:57:18;6.10;;;1.52;;
66523;SDS011;53350;52.210;5.160;2023-04-24T09:59:45;7.25;;;1.92;;
66523;SDS011;53350;52.210;5.160;2023-04-24T10:02:16;7.00;;;1.30;;
66523;SDS011;53350;52.210;5.160;2023-04-24T10:04:53;4.80;;;0.98;;
66523;SDS011;53350;52.210;5.160;2023-04-24T10:07:20;4.38;;;1.50;;
66523;SDS011;53350;52.210;5.160;2023-04-24T10:09:48;4.00;;;1.00;;
66523;SDS011;53350;52.210;5.160;2023-04-24T10:12:14;4.72;;;1.27;;
66523;SDS011;53350;52.210;5.160;2023-04-24T10:14:41;6.20;;;1.42;;
66523;SDS011;53350;52.210;5.160;2023-04-24T10:17:07;8.27;;;1.77;;
66523;SDS011;53350;52.210;5.160;2023-04-24T10:19:34;3.03;;;1.05;;
66523;SDS011;53350;52.210;5.160;2023-04-24T10:22:03;5.00;;;1.00;;
66523;SDS011;53350;52.210;5.160;2023-04-24T10:24:30;5.97;;;1.37;;
66523;SDS011;53350;52.210;5.160;2023-04-24T10:27:01;6.38;;;1.10;;
66523;SDS011;53350;52.210;5.160;2023-04-24T10:29:28;7.18;;;1.27;;
66523;SDS011;53350;52.210;5.160;2023-04-24T10:31:57;3.72;;;0.70;;
66523;SDS011;53350;52.210;5.160;2023-04-24T10:34:23;9.00;;;1.40;;
66523;SDS011;53350;52.210;5.160;2023-04-24T10:36:51;2.67;;;0.82;;
66523;SDS011;53350;52.210;5.160;2023-04-24T10:39:18;8.70;;;1.57;;
66523;SDS011;53350;52.210;5.160;2023-04-24T10:41:47;5.35;;;1.08;;
66523;SDS011;53350;52.210;5.160;2023-04-24T10:44:16;9.00;;;1.05;;
66523;SDS011;53350;52.210;5.160;2023-04-24T10:46:43;2.30;;;0.82;;
66523;SDS011;53350;52.210;5.160;2023-04-24T10:49:10;7.43;;;1.20;;
66523;SDS011;53350;52.210;5.160;2023-04-24T10:51:47;4.78;;;1.17;;
66523;SDS011;53350;52.210;5.160;2023-04-24T10:54:24;3.22;;;1.00;;
66523;SDS011;53350;52.210;5.160;2023-04-24T10:56:52;4.82;;;1.20;;
66523;SDS011;53350;52.210;5.160;2023-04-24T10:59:26;8.13;;;1.63;;
66523;SDS011;53350;52.210;5.160;2023-04-24T11:01:54;8.05;;;1.35;;
66523;SDS011;53350;52.210;5.160;2023-04-24T11:04:30;5.30;;;1.08;;
66523;SDS011;53350;52.210;5.160;2023-04-24T11:06:58;6.50;;;1.13;;
66523;SDS011;53350;52.210;5.160;2023-04-24T11:09:26;5.85;;;0.85;;
66523;SDS011;53350;52.210;5.160;2023-04-24T11:12:02;7.20;;;1.23;;
66523;SDS011;53350;52.210;5.160;2023-04-24T11:14:35;4.07;;;0.70;;
66523;SDS011;53350;52.210;5.160;2023-04-24T11:17:28;4.50;;;0.85;;
66523;SDS011;53350;52.210;5.160;2023-04-24T11:19:59;2.25;;;0.57;;
66523;SDS011;53350;52.210;5.160;2023-04-24T11:22:27;2.47;;;0.90;;
66523;SDS011;53350;52.210;5.160;2023-04-24T11:24:58;2.67;;;0.60;;
66523;SDS011;53350;52.210;5.160;2023-04-24T11:27:28;2.15;;;0.68;;
66523;SDS011;53350;52.210;5.160;2023-04-24T11:30:00;2.88;;;0.70;;
66523;SDS011;53350;52.210;5.160;2023-04-24T11:32:28;2.35;;;0.60;;
66523;SDS011;53350;52.210;5.160;2023-04-24T11:34:56;4.13;;;0.70;;
66523;SDS011;53350;52.210;5.160;2023-04-24T11:39:52;2.00;;;0.70;;
66523;SDS011;53350;52.210;5.160;2023-04-24T11:42:20;6.50;;;0.70;;
66523;SDS011;53350;52.210;5.160;2023-04-24T11:44:48;6.10;;;1.80;;
66523;SDS011;53350;52.210;5.160;2023-04-24T11:47:17;7.38;;;1.05;;
66523;SDS011;53350;52.210;5.160;2023-04-24T11:49:43;6.43;;;1.00;;
66523;SDS011;53350;52.210;5.160;2023-04-24T11:52:10;5.45;;;1.00;;
66523;SDS011;53350;52.210;5.160;2023-04-24T11:54:36;4.88;;;0.90;;
66523;SDS011;53350;52.210;5.160;2023-04-24T11:57:03;8.95;;;1.38;;
66523;SDS011;53350;52.210;5.160;2023-04-24T11:59:35;6.57;;;0.98;;
66523;SDS011;53350;52.210;5.160;2023-04-24T12:02:01;5.00;;;1.30;;
66523;SDS011;53350;52.210;5.160;2023-04-24T12:04:37;7.15;;;1.08;;
66523;SDS011;53350;52.210;5.160;2023-04-24T12:07:05;4.15;;;1.27;;
66523;SDS011;53350;52.210;5.160;2023-04-24T12:09:43;11.38;;;1.30;;
66523;SDS011;53350;52.210;5.160;2023-04-24T12:12:10;6.68;;;1.17;;
66523;SDS011;53350;52.210;5.160;2023-04-24T12:14:44;8.32;;;1.55;;
66523;SDS011;53350;52.210;5.160;2023-04-24T12:17:13;7.30;;;1.13;;
66523;SDS011;53350;52.210;5.160;2023-04-24T12:19:45;8.25;;;1.23;;
66523;SDS011;53350;52.210;5.160;2023-04-24T12:22:12;6.18;;;1.30;;
66523;SDS011;53350;52.210;5.160;2023-04-24T12:27:25;5.68;;;1.20;;
66523;SDS011;53350;52.210;5.160;2023-04-24T12:29:52;7.07;;;1.50;;
66523;SDS011;53350;52.210;5.160;2023-04-24T12:32:19;5.88;;;1.00;;
66523;SDS011;53350;52.210;5.160;2023-04-24T12:34:47;9.45;;;1.48;;
66523;SDS011;53350;52.210;5.160;2023-04-24T12:37:15;12.02;;;1.98;;
66523;SDS011;53350;52.210;5.160;2023-04-24T12:39:44;11.32;;;1.65;;
66523;SDS011;53350;52.210;5.160;2023-04-24T12:42:25;10.98;;;1.90;;
66523;SDS011;53350;52.210;5.160;2023-04-24T12:44:55;9.35;;;1.98;;
66523;SDS011;53350;52.210;5.160;2023-04-24T12:47:22;18.13;;;2.60;;
66523;SDS011;53350;52.210;5.160;2023-04-24T12:49:50;14.15;;;2.00;;
66523;SDS011;53350;52.210;5.160;2023-04-24T12:52:17;13.70;;;1.80;;
66523;SDS011;53350;52.210;5.160;2023-04-24T12:54:44;10.63;;;1.33;;
66523;SDS011;53350;52.210;5.160;2023-04-24T12:57:11;11.02;;;1.73;;
66523;SDS011;53350;52.210;5.160;2023-04-24T12:59:38;17.27;;;2.92;;
66523;SDS011;53350;52.210;5.160;2023-04-24T13:02:05;12.55;;;2.17;;
66523;SDS011;53350;52.210;5.160;2023-04-24T13:04:32;15.55;;;2.50;;
66523;SDS011;53350;52.210;5.160;2023-04-24T13:07:00;10.88;;;2.03;;
66523;SDS011;53350;52.210;5.160;2023-04-24T13:09:26;12.98;;;1.80;;
66523;SDS011;53350;52.210;5.160;2023-04-24T13:11:53;9.27;;;1.35;;
66523;SDS011;53350;52.210;5.160;2023-04-24T13:14:20;15.77;;;2.85;;
66523;SDS011;53350;52.210;5.160;2023-04-24T13:16:46;11.77;;;2.03;;
66523;SDS011;53350;52.210;5.160;2023-04-24T13:19:13;20.75;;;2.45;;
66523;SDS011;53350;52.210;5.160;2023-04-24T13:21:40;6.78;;;1.85;;
66523;SDS011;53350;52.210;5.160;2023-04-24T13:24:07;10.73;;;1.90;;
66523;SDS011;53350;52.210;5.160;2023-04-24T13:26:34;12.32;;;2.60;;
66523;SDS011;53350;52.210;5.160;2023-04-24T13:29:01;10.13;;;2.03;;
66523;SDS011;53350;52.210;5.160;2023-04-24T13:31:28;11.27;;;2.70;;
66523;SDS011;53350;52.210;5.160;2023-04-24T13:33:55;11.05;;;2.40;;
66523;SDS011;53350;52.210;5.160;2023-04-24T13:36:21;13.82;;;3.40;;
66523;SDS011;53350;52.210;5.160;2023-04-24T13:38:48;13.27;;;2.85;;
66523;SDS011;53350;52.210;5.160;2023-04-24T13:41:16;14.75;;;2.45;;
66523;SDS011;53350;52.210;5.160;2023-04-24T13:43:42;9.75;;;2.10;;
66523;SDS011;53350;52.210;5.160;2023-04-24T13:46:08;14.50;;;2.50;;
66523;SDS011;53350;52.210;5.160;2023-04-24T13:48:35;5.38;;;1.80;;
66523;SDS011;53350;52.210;5.160;2023-04-24T13:51:02;14.38;;;2.40;;
66523;SDS011;53350;52.210;5.160;2023-04-24T13:53:28;11.88;;;2.20;;
66523;SDS011;53350;52.210;5.160;2023-04-24T13:55:55;8.43;;;2.22;;
66523;SDS011;53350;52.210;5.160;2023-04-24T13:58:22;12.85;;;2.72;;
66523;SDS011;53350;52.210;5.160;2023-04-24T14:00:49;7.40;;;2.17;;
66523;SDS011;53350;52.210;5.160;2023-04-24T14:03:16;11.30;;;3.35;;
66523;SDS011;53350;52.210;5.160;2023-04-24T14:05:42;12.90;;;2.55;;
66523;SDS011;53350;52.210;5.160;2023-04-24T14:08:08;7.18;;;2.28;;
66523;SDS011;53350;52.210;5.160;2023-04-24T14:10:35;12.60;;;2.38;;
66523;SDS011;53350;52.210;5.160;2023-04-24T14:13:01;11.32;;;2.20;;
66523;SDS011;53350;52.210;5.160;2023-04-24T14:15:29;11.50;;;1.98;;
66523;SDS011;53350;52.210;5.160;2023-04-24T14:17:56;8.88;;;2.20;;
66523;SDS011;53350;52.210;5.160;2023-04-24T14:20:22;10.35;;;2.33;;
66523;SDS011;53350;52.210;5.160;2023-04-24T14:22:48;13.38;;;2.50;;
66523;SDS011;53350;52.210;5.160;2023-04-24T14:25:15;10.63;;;1.90;;
66523;SDS011;53350;52.210;5.160;2023-04-24T14:27:41;8.02;;;1.65;;
66523;SDS011;53350;52.210;5.160;2023-04-24T14:30:08;16.30;;;3.05;;
66523;SDS011;53350;52.210;5.160;2023-04-24T14:32:37;11.52;;;2.88;;
66523;SDS011;53350;52.210;5.160;2023-04-24T14:35:04;8.52;;;2.00;;
66523;SDS011;53350;52.210;5.160;2023-04-24T14:37:32;12.43;;;2.50;;
66523;SDS011;53350;52.210;5.160;2023-04-24T14:39:58;9.68;;;1.90;;
66523;SDS011;53350;52.210;5.160;2023-04-24T14:42:25;8.23;;;1.65;;
66523;SDS011;53350;52.210;5.160;2023-04-24T14:47:19;7.88;;;1.70;;
66523;SDS011;53350;52.210;5.160;2023-04-24T14:49:48;14.80;;;2.33;;
66523;SDS011;53350;52.210;5.160;2023-04-24T14:52:15;8.38;;;2.00;;
66523;SDS011;53350;52.210;5.160;2023-04-24T14:54:41;11.95;;;2.47;;